Terminal Aerodrome Forecast
Issued by NWS

Home | Current Version | Previous Version | Text Only | Print | Product List | Glossary On
Versions: 1 2 3 4 5 6 7 8 9 10 11 12 13 14 15
000
FTUS45 KFGZ 042326
TAFPRC
TAF
KPRC 042326Z 0500/0524 25008KT P6SM VCSH SCT070 BKN110
     FM050300 20005KT P6SM SCT070 BKN120
     FM051900 26009KT P6SM SCT040 BKN060=

USA.gov is the U.S. government's official web portal to all federal, state and local government web resources and services.